Terminal Aerodrome Forecast
Issued by NWS

Home | Current Version | Previous Version | Text Only | Print | Product List | Glossary On
Versions: 1 2 3 4 5 6 7 8 9 10 11 12 13 14 15
000
FTUS41 KCLE 290539
TAFFDY
TAF
KFDY 290539Z 2906/3006 18006KT P6SM SCT120 BKN250
     FM291400 20010KT P6SM SCT040 BKN250
     FM291800 22010G18KT P6SM BKN050 PROB30 2920/2922 5SM -TSRA BR
      BKN035CB
     FM292300 25007KT P6SM SCT100=

USA.gov is the U.S. government's official web portal to all federal, state and local government web resources and services.